createdAt,value
2024-02-11T00:04:34.223Z,48.33
2024-02-11T00:09:36.598Z,48.04
2024-02-11T00:14:38.811Z,48.29
2024-02-11T00:19:41.434Z,48.47
2024-02-11T00:24:43.879Z,47.87
2024-02-11T00:29:46.240Z,48.32
2024-02-11T00:34:48.454Z,48.63
2024-02-11T00:39:50.730Z,49.20
2024-02-11T00:44:53.548Z,48.90
2024-02-11T00:49:56.895Z,48.41
2024-02-11T00:54:59.220Z,49.35
2024-02-11T01:00:01.515Z,49.39
2024-02-11T01:05:07.499Z,49.02
2024-02-11T01:10:13.970Z,48.28
2024-02-11T01:15:19.448Z,47.98
2024-02-11T01:20:22.684Z,48.85
2024-02-11T01:25:24.983Z,49.02
2024-02-11T01:30:27.312Z,48.26
2024-02-11T01:35:30.126Z,49.97
2024-02-11T01:40:34.011Z,47.95
2024-02-11T01:45:37.151Z,50.01
2024-02-11T01:50:41.808Z,49.55
2024-02-11T01:55:45.581Z,50.01
2024-02-11T02:00:49.523Z,49.33
2024-02-11T02:05:53.270Z,49.42
2024-02-11T02:10:55.845Z,50.04
2024-02-11T02:15:58.244Z,49.83
2024-02-11T02:21:00.485Z,48.75
2024-02-11T02:26:10.186Z,49.33
2024-02-11T02:31:12.521Z,49.49
2024-02-11T02:36:19.167Z,49.80
2024-02-11T02:41:22.505Z,49.00
2024-02-11T02:46:29.378Z,49.34
2024-02-11T02:51:32.405Z,48.60
2024-02-11T02:56:35.819Z,49.67
2024-02-11T03:01:39.603Z,49.35
2024-02-11T03:06:42.197Z,49.37
2024-02-11T03:11:44.538Z,50.28
2024-02-11T03:16:48.473Z,49.17
2024-02-11T03:21:54.178Z,49.43
2024-02-11T03:26:58.148Z,49.15
2024-02-11T03:32:00.604Z,49.54
2024-02-11T03:37:02.803Z,49.42
2024-02-11T03:42:06.126Z,49.93
2024-02-11T03:47:08.533Z,49.22
2024-02-11T03:52:10.946Z,49.17
2024-02-11T03:57:13.285Z,50.21
2024-02-11T04:02:15.683Z,49.95
2024-02-11T04:07:21.336Z,50.25
2024-02-11T04:12:23.828Z,50.02
2024-02-11T04:17:29.356Z,50.10
2024-02-11T04:22:31.646Z,49.81
2024-02-11T04:27:37.637Z,49.68
2024-02-11T04:32:43.733Z,50.64
2024-02-11T04:37:50.865Z,49.69
2024-02-11T04:42:54.244Z,50.57
2024-02-11T04:48:01.529Z,51.13
2024-02-11T04:53:04.409Z,50.23
2024-02-11T04:58:20.675Z,50.76
2024-02-11T05:03:25.536Z,51.37
2024-02-11T05:08:28.769Z,50.70
2024-02-11T05:13:32.185Z,51.39
2024-02-11T05:18:37.736Z,51.64
2024-02-11T05:23:41.469Z,50.67
2024-02-11T05:28:44.918Z,51.43
2024-02-11T05:33:47.219Z,50.71
2024-02-11T05:38:49.736Z,51.23
2024-02-11T05:43:52.279Z,51.93
2024-02-11T05:48:54.597Z,51.12
2024-02-11T05:53:57.028Z,51.88
2024-02-11T05:58:59.240Z,51.56
2024-02-11T06:04:01.645Z,51.65
2024-02-11T06:09:06.744Z,51.10
2024-02-11T06:14:09.174Z,51.32
2024-02-11T06:19:11.483Z,50.95
2024-02-11T06:24:14.345Z,50.59
2024-02-11T06:29:36.176Z,50.77
2024-02-11T06:34:39.513Z,51.41
2024-02-11T06:39:41.880Z,50.75
2024-02-11T06:44:44.313Z,49.86
2024-02-11T06:49:47.003Z,49.70
2024-02-11T06:54:50.483Z,49.04
2024-02-11T06:59:54.196Z,49.27
2024-02-11T07:04:57.257Z,48.22
2024-02-11T07:10:00.334Z,48.46
2024-02-11T07:15:07.493Z,47.30
2024-02-11T07:20:13.301Z,43.97
2024-02-11T07:25:18.606Z,42.58
2024-02-11T07:30:21.540Z,40.97
2024-02-11T07:35:24.975Z,41.63
2024-02-11T07:40:27.222Z,40.63
2024-02-11T07:45:29.600Z,39.29
2024-02-11T07:50:35.549Z,39.16
2024-02-11T07:55:37.995Z,40.93
2024-02-11T08:00:41.035Z,42.58
2024-02-11T08:05:43.557Z,43.23
2024-02-11T08:10:46.000Z,44.35
2024-02-11T08:15:48.369Z,44.94
2024-02-11T08:20:50.732Z,44.76
2024-02-11T08:25:53.097Z,45.50
2024-02-11T08:30:55.443Z,45.65
2024-02-11T08:35:58.059Z,46.25
2024-02-11T08:41:00.449Z,46.52
2024-02-11T08:46:05.777Z,45.99
2024-02-11T08:51:08.887Z,46.18
2024-02-11T08:56:11.570Z,46.54
2024-02-11T09:01:14.066Z,46.64
2024-02-11T09:06:16.625Z,46.40
2024-02-11T09:11:19.012Z,46.37
2024-02-11T09:16:21.330Z,43.42
2024-02-11T09:21:23.941Z,37.84
2024-02-11T09:26:26.381Z,34.66
2024-02-11T09:31:28.783Z,33.85
2024-02-11T09:36:31.101Z,31.32
2024-02-11T09:41:34.408Z,30.03
2024-02-11T09:46:38.749Z,29.09
2024-02-11T09:51:43.040Z,28.21
2024-02-11T09:56:45.953Z,28.16
2024-02-11T10:01:50.055Z,27.37
2024-02-11T10:06:54.259Z,26.85
2024-02-11T10:11:57.382Z,26.25
2024-02-11T10:17:01.089Z,25.47
2024-02-11T10:22:14.679Z,26.14
2024-02-11T10:27:25.783Z,27.06
2024-02-11T10:32:32.360Z,29.68
2024-02-11T10:37:52.518Z,31.50
2024-02-11T10:42:57.513Z,31.77
2024-02-11T10:48:00.070Z,32.64
2024-02-11T10:53:06.404Z,33.23
2024-02-11T10:58:09.724Z,34.12
2024-02-11T11:03:16.263Z,36.04
2024-02-11T11:08:20.802Z,37.06
2024-02-11T11:13:26.349Z,37.16
2024-02-11T11:18:28.751Z,37.93
2024-02-11T11:23:31.976Z,39.59
2024-02-11T11:28:34.288Z,40.05
2024-02-11T11:33:37.204Z,39.86
2024-02-11T11:38:39.927Z,40.56
2024-02-11T11:43:42.611Z,40.05
2024-02-11T11:48:45.067Z,40.44
2024-02-11T11:53:48.369Z,41.65
2024-02-11T11:58:53.846Z,42.58
2024-02-11T12:03:56.115Z,42.97
2024-02-11T12:08:58.528Z,42.62
2024-02-11T12:14:01.639Z,43.04
2024-02-11T12:19:03.970Z,44.03
2024-02-11T12:24:06.618Z,43.54
2024-02-11T12:29:08.860Z,44.13
2024-02-11T12:34:11.222Z,44.11
2024-02-11T12:39:14.485Z,44.52
2024-02-11T12:44:16.827Z,44.31
2024-02-11T12:49:19.188Z,44.60
2024-02-11T12:54:21.467Z,44.74
2024-02-11T12:59:25.196Z,45.26
2024-02-11T13:04:27.720Z,44.35
2024-02-11T13:09:48.435Z,44.74
2024-02-11T13:14:50.769Z,45.59
2024-02-11T13:19:53.971Z,45.79
2024-02-11T13:24:56.229Z,46.82
2024-02-11T13:29:58.489Z,47.52
2024-02-11T13:35:01.722Z,47.12
2024-02-11T13:40:13.389Z,46.96
2024-02-11T13:45:16.341Z,47.33
2024-02-11T13:50:18.637Z,48.71
2024-02-11T13:55:20.928Z,48.54
2024-02-11T14:00:23.553Z,48.26
2024-02-11T14:05:26.033Z,48.76
2024-02-11T14:10:28.405Z,48.28
2024-02-11T14:15:30.846Z,48.50
2024-02-11T14:20:51.782Z,48.13
2024-02-11T14:25:54.099Z,48.62
2024-02-11T14:30:58.122Z,48.39
2024-02-11T14:36:01.059Z,49.10
2024-02-11T14:41:04.480Z,48.42
2024-02-11T14:46:07.786Z,49.03
2024-02-11T14:51:10.065Z,49.48
2024-02-11T14:56:12.472Z,48.82
2024-02-11T15:01:16.155Z,49.80
2024-02-11T15:06:19.015Z,49.33
2024-02-11T15:11:23.379Z,49.48
2024-02-11T15:16:25.729Z,49.84
2024-02-11T15:21:27.970Z,50.31
2024-02-11T15:26:30.520Z,50.03
2024-02-11T15:31:32.909Z,49.85
2024-02-11T15:36:35.530Z,50.53
2024-02-11T15:41:37.833Z,48.97
2024-02-11T15:46:40.382Z,50.27
2024-02-11T15:51:47.004Z,51.03
2024-02-11T15:56:50.288Z,50.60
2024-02-11T16:01:52.766Z,50.85
2024-02-11T16:06:55.663Z,51.62
2024-02-11T16:11:59.586Z,50.18
2024-02-11T16:17:01.848Z,51.43
2024-02-11T16:22:04.276Z,51.99
2024-02-11T16:27:25.337Z,51.50
2024-02-11T16:32:27.789Z,51.09
2024-02-11T16:37:30.094Z,52.02
2024-02-11T16:42:32.383Z,51.60
2024-02-11T16:47:34.803Z,51.18
2024-02-11T16:52:37.710Z,51.32
2024-02-11T16:57:40.217Z,51.94
2024-02-11T17:02:44.620Z,51.75
2024-02-11T17:07:50.158Z,52.05
2024-02-11T17:12:52.625Z,51.97
2024-02-11T17:17:55.299Z,52.37
2024-02-11T17:22:57.808Z,51.60
2024-02-11T17:28:00.935Z,52.17
2024-02-11T17:33:03.482Z,51.77
2024-02-11T17:38:07.456Z,52.18
2024-02-11T17:43:11.035Z,52.42
2024-02-11T17:48:13.609Z,51.93
2024-02-11T17:53:16.407Z,51.65
2024-02-11T17:58:18.759Z,51.18
2024-02-11T18:03:22.451Z,50.85
2024-02-11T18:08:24.886Z,52.24
2024-02-11T18:13:27.346Z,52.08
2024-02-11T18:18:34.512Z,52.08
2024-02-11T18:23:37.444Z,52.15
2024-02-11T18:28:43.825Z,52.61
2024-02-11T18:33:46.517Z,52.67
2024-02-11T18:38:49.015Z,53.07
2024-02-11T18:43:51.327Z,52.97
2024-02-11T18:48:53.575Z,53.35
2024-02-11T18:53:55.780Z,53.49
2024-02-11T18:58:58.132Z,53.54
2024-02-11T19:04:00.420Z,53.69
2024-02-11T19:09:08.148Z,53.91
2024-02-11T19:14:10.580Z,54.31
2024-02-11T19:19:15.768Z,54.16
2024-02-11T19:24:18.110Z,54.21
2024-02-11T19:29:21.966Z,54.01
2024-02-11T19:34:24.274Z,54.33
2024-02-11T19:39:27.565Z,54.57
2024-02-11T19:44:32.158Z,53.86
2024-02-11T19:49:36.051Z,55.01
2024-02-11T19:54:38.443Z,54.15
2024-02-11T19:59:40.996Z,54.89
2024-02-11T20:04:43.441Z,55.45
2024-02-11T20:09:45.739Z,55.35
2024-02-11T20:14:48.014Z,55.86
2024-02-11T20:19:52.565Z,55.48
2024-02-11T20:25:13.441Z,55.95
2024-02-11T20:30:15.949Z,56.47
2024-02-11T20:35:19.837Z,55.41
2024-02-11T20:40:22.171Z,55.62
2024-02-11T20:45:25.260Z,55.91
2024-02-11T20:50:28.785Z,56.30
2024-02-11T20:55:30.982Z,56.35
2024-02-11T21:00:36.698Z,55.83
2024-02-11T21:05:39.169Z,55.86
2024-02-11T21:10:46.026Z,56.36
2024-02-11T21:16:08.599Z,56.38
2024-02-11T21:21:11.500Z,56.59
2024-02-11T21:26:18.493Z,56.43
2024-02-11T21:31:23.216Z,56.82
2024-02-11T21:36:26.742Z,56.68
2024-02-11T21:41:29.142Z,56.99
2024-02-11T21:46:31.913Z,56.76
2024-02-11T21:51:36.241Z,56.84
2024-02-11T21:56:38.926Z,56.53
2024-02-11T22:01:41.362Z,56.83
2024-02-11T22:06:43.944Z,56.67
2024-02-11T22:11:46.412Z,56.62
2024-02-11T22:16:49.842Z,56.70
2024-02-11T22:21:52.200Z,56.64
2024-02-11T22:26:57.827Z,56.92
2024-02-11T22:32:00.195Z,57.04
2024-02-11T22:37:02.650Z,57.21
2024-02-11T22:42:06.333Z,56.99
2024-02-11T22:47:08.795Z,57.28
2024-02-11T22:52:14.425Z,57.41
2024-02-11T22:57:17.113Z,57.07
2024-02-11T23:02:20.112Z,57.08
2024-02-11T23:07:22.312Z,57.35
2024-02-11T23:12:24.570Z,56.88
2024-02-11T23:17:27.577Z,56.47
2024-02-11T23:22:34.476Z,57.44
2024-02-11T23:27:38.756Z,57.57
2024-02-11T23:32:44.353Z,57.22
2024-02-11T23:37:46.560Z,57.82
2024-02-11T23:42:48.888Z,57.81
2024-02-11T23:47:51.121Z,58.23
2024-02-11T23:52:54.052Z,58.31
2024-02-11T23:57:56.439Z,58.19
